Airfield :
LOGIN :

Register | Disclaimer

   EN    FR    IT 

 










Legend :    VFR   Marginal VFR   IFR   Intensive IFR   Very Intensive IFR
Visi :
Ceiling :
>= 8 km
>= 3000ft
5 to 8 km
1000 to 3000 ft
1500m to 5 km
500 to 1000 ft
800 to 1500m
200 to 500 ft
< 800m
< 200 ft
Symbols :   Thunderstorms  Fog  Heavy snow  Heavy precipitations  Wind > 20 kt
SIGMETs :     Misc.  Thunderstorms  Icing  Turbulence  Mountain Waves  Volcanic Ashes







- Airport Elevation : 157 ft
- IATA code : LIL
- Download approach charts


LFQQ - Lille Lesquin

CURRENT METAR :
  • 272300Z AUTO 06004KT 6000 NSC 20/18 Q1016 TEMPO VRB20G30KT 1200 TSRAGR BKN050CB

EXPIRED METARs :
  • 272230Z AUTO VRB02KT 6000 NSC 20/17 Q1016 TEMPO VRB20G30KT 1200 TSRAGR BKN050CB
  • 272200Z AUTO 23003KT 7000 NSC 20/17 Q1016 TEMPO VRB20G30KT 1200 TSRAGR BKN050CB
  • 272130Z AUTO 04002KT 8000 ///CB 21/17 Q1016 TEMPO VRB20G30KT 1200 TSRAGR
  • 272100Z AUTO 02002KT 9000 FEW047/// BKN100/// BKN220/// ///CB 21/17 Q1016 TEMPO VRB20G30KT 1200 TSRAGR
  • 272030Z AUTO 04003KT 010V070 9000 NSC 21/17 Q1016 TEMPO VRB20G30KT 1200 TSRAGR BKN050CB

TAF TAF LFQQ
Valid from the 28 at 00:00 until the 29 at 06:00 UTC


272300Z 2800/2906 03008KT CAVOK
PROB40
TEMPO 2812/2824 2000 TSRAGR BKN050CB
ATIS : +33 3 20 16 19 54
No reported NOTAMs for that airfield.
2 SIGMETs reported for the Paris FIR (LFFF) :
 
Embedded thunderstorms
LFFF SIGMET 11 VALID 272300/280200 LFPW
LFFF PARIS FIR/UIR EMBD TS OBS NE OF LINE N5015 E00030 - N4800 E00500 TOP FL380 STNR WKN=
Embedded thunderstorms
LFFF SIGMET 10 VALID 272200/272300 LFPW
LFFF PARIS FIR/UIR EMBD TS OBS WI N5030 E00330 - N4945 E00515 - N4845 E00415 - N4930 E00130 - N5030 E00100 - N5030 E00330 TOP FL370 MOV N 10KT NC=



MET'MAP, your aeronautical weather chart ! - Copyright ORBIFLY December 2007 - Disclaimer

ORBIFLY MET'MAP TEAM :

Programming & Development : Alexandra Zaïnal
Concept & Development : Baudouin d'Aumeries
Co-Development & Prog : Marc-Olivier Méhu
Technical & hardware support : Manuel Goepfert

Contact : metmap@orbifly.com




SOURCES & CREDITS :

   NOAA